createdAt,value
2022-09-15T00:00:54.059Z,35
2022-09-15T00:01:54.157Z,36
2022-09-15T00:02:54.191Z,38
2022-09-15T00:03:54.081Z,37
2022-09-15T00:04:54.077Z,37
2022-09-15T00:05:54.076Z,40
2022-09-15T00:06:54.087Z,40
2022-09-15T00:07:54.072Z,34
2022-09-15T00:08:54.065Z,40
2022-09-15T00:09:54.098Z,39
2022-09-15T00:10:54.126Z,37
2022-09-15T00:11:54.082Z,39
2022-09-15T00:12:54.096Z,42
2022-09-15T00:13:54.094Z,41
2022-09-15T00:14:54.062Z,44
2022-09-15T00:15:54.075Z,42
2022-09-15T00:16:54.167Z,39
2022-09-15T00:17:54.115Z,41
2022-09-15T00:18:54.099Z,37
2022-09-15T00:19:54.080Z,40
2022-09-15T00:20:54.088Z,41
2022-09-15T00:21:54.081Z,37
2022-09-15T00:22:54.196Z,39
2022-09-15T00:23:54.088Z,39
2022-09-15T00:24:54.093Z,39
2022-09-15T00:25:54.075Z,37
2022-09-15T00:26:54.093Z,38
2022-09-15T00:27:54.073Z,38
2022-09-15T00:28:54.079Z,38
2022-09-15T00:29:54.071Z,41
2022-09-15T00:30:54.199Z,39
2022-09-15T00:31:54.082Z,38
2022-09-15T00:32:54.073Z,38
2022-09-15T00:33:54.081Z,37
2022-09-15T00:34:54.072Z,39
2022-09-15T00:35:54.070Z,38
2022-09-15T00:36:54.083Z,36
2022-09-15T00:37:54.082Z,41
2022-09-15T00:38:54.078Z,39
2022-09-15T00:39:54.155Z,39
2022-09-15T00:40:54.079Z,39
2022-09-15T00:41:54.076Z,37
2022-09-15T00:42:54.078Z,38
2022-09-15T00:43:54.079Z,40
2022-09-15T00:44:54.154Z,35
2022-09-15T00:45:54.146Z,41
2022-09-15T00:47:15.295Z,43
2022-09-15T00:47:54.085Z,42
2022-09-15T00:48:54.090Z,39
2022-09-15T00:49:58.834Z,41
2022-09-15T00:50:54.077Z,41
2022-09-15T00:51:54.123Z,40
2022-09-15T00:52:54.089Z,41
2022-09-15T00:53:54.104Z,38
2022-09-15T00:54:54.103Z,39
2022-09-15T00:55:54.083Z,44
2022-09-15T00:56:54.084Z,38
2022-09-15T00:57:54.090Z,41
2022-09-15T00:58:54.073Z,39
2022-09-15T00:59:54.093Z,43
2022-09-15T01:00:54.153Z,42
2022-09-15T01:01:54.208Z,41
2022-09-15T01:02:54.087Z,44
2022-09-15T01:03:54.080Z,42
2022-09-15T01:04:58.220Z,38
2022-09-15T01:05:54.084Z,43
2022-09-15T01:06:54.091Z,47
2022-09-15T01:07:54.084Z,42
2022-09-15T01:08:54.084Z,44
2022-09-15T01:09:54.101Z,42
2022-09-15T01:10:54.084Z,41
2022-09-15T01:11:54.137Z,40
2022-09-15T01:12:54.078Z,43
2022-09-15T01:13:54.089Z,44
2022-09-15T01:14:54.089Z,41
2022-09-15T01:15:54.088Z,40
2022-09-15T01:16:54.129Z,41
2022-09-15T01:17:54.086Z,41
2022-09-15T01:18:54.083Z,43
2022-09-15T01:19:54.086Z,43
2022-09-15T01:20:54.092Z,42
2022-09-15T01:21:58.625Z,41
2022-09-15T01:22:54.091Z,43
2022-09-15T01:23:54.149Z,45
2022-09-15T01:24:54.129Z,42
2022-09-15T01:25:54.089Z,43
2022-09-15T01:26:54.080Z,41
2022-09-15T01:27:54.096Z,41
2022-09-15T01:28:54.091Z,41
2022-09-15T01:29:54.086Z,41
2022-09-15T01:30:54.085Z,42
2022-09-15T01:31:54.209Z,44
2022-09-15T01:32:54.082Z,42
2022-09-15T01:33:54.080Z,38
2022-09-15T01:34:54.092Z,41
2022-09-15T01:35:54.092Z,41
2022-09-15T01:36:54.075Z,38
2022-09-15T01:37:54.105Z,42
2022-09-15T01:38:54.084Z,41
2022-09-15T01:39:54.166Z,41
2022-09-15T01:40:54.083Z,43
2022-09-15T01:41:54.097Z,45
2022-09-15T01:42:54.082Z,44
2022-09-15T01:43:54.089Z,42
2022-09-15T01:44:54.109Z,44
2022-09-15T01:45:54.191Z,43
2022-09-15T01:46:54.097Z,43
2022-09-15T01:47:54.098Z,45
2022-09-15T01:48:54.096Z,44
2022-09-15T01:49:54.086Z,45
2022-09-15T01:50:54.093Z,42
2022-09-15T01:51:54.094Z,46
2022-09-15T01:52:54.077Z,46
2022-09-15T01:53:54.124Z,44
2022-09-15T01:54:54.100Z,45
2022-09-15T01:55:54.122Z,42
2022-09-15T01:56:54.085Z,42
2022-09-15T01:57:54.129Z,45
2022-09-15T01:58:54.106Z,47
2022-09-15T01:59:54.098Z,43
2022-09-15T02:00:54.151Z,44
2022-09-15T02:01:54.209Z,41
2022-09-15T02:02:54.150Z,45
2022-09-15T02:03:54.099Z,43
2022-09-15T02:04:54.084Z,43
2022-09-15T02:05:54.101Z,44
2022-09-15T02:06:54.095Z,45
2022-09-15T02:07:54.101Z,44
2022-09-15T02:08:54.102Z,50
2022-09-15T02:09:54.093Z,46
2022-09-15T02:10:54.088Z,44
2022-09-15T02:11:54.084Z,41
2022-09-15T02:12:54.102Z,41
2022-09-15T02:13:54.093Z,45
2022-09-15T02:14:54.099Z,43
2022-09-15T02:15:54.092Z,46
2022-09-15T02:16:54.231Z,45
2022-09-15T02:17:54.104Z,43
2022-09-15T02:18:54.099Z,42
2022-09-15T02:19:54.156Z,39
2022-09-15T02:20:54.090Z,46
2022-09-15T02:21:54.092Z,44
2022-09-15T02:22:54.097Z,47
2022-09-15T02:23:54.106Z,48
2022-09-15T02:24:54.097Z,46
2022-09-15T02:25:54.088Z,45
2022-09-15T02:26:54.116Z,42
2022-09-15T02:27:54.094Z,48
2022-09-15T02:28:54.095Z,46
2022-09-15T02:29:54.116Z,46
2022-09-15T02:30:54.096Z,46
2022-09-15T02:31:54.237Z,46
2022-09-15T02:32:54.105Z,46
2022-09-15T02:33:54.113Z,48
2022-09-15T02:34:54.124Z,53
2022-09-15T02:35:54.094Z,46
2022-09-15T02:36:54.106Z,46
2022-09-15T02:37:54.112Z,47
2022-09-15T02:38:54.101Z,50
2022-09-15T02:39:54.107Z,48
2022-09-15T02:40:54.112Z,50
2022-09-15T02:41:54.145Z,46
2022-09-15T02:42:54.091Z,49
2022-09-15T02:43:54.097Z,48
2022-09-15T02:44:54.113Z,45
2022-09-15T02:45:54.138Z,48
2022-09-15T02:46:54.096Z,48
2022-09-15T02:47:54.102Z,46
2022-09-15T02:48:54.098Z,47
2022-09-15T02:49:54.115Z,49
2022-09-15T02:50:54.106Z,44
2022-09-15T02:51:54.110Z,48
2022-09-15T02:52:54.100Z,45
2022-09-15T02:53:54.106Z,23
2022-09-15T02:54:54.131Z,42
2022-09-15T02:55:54.107Z,44
2022-09-15T02:56:54.095Z,46
2022-09-15T02:57:54.136Z,47
2022-09-15T02:58:54.127Z,45
2022-09-15T02:59:54.099Z,42
2022-09-15T03:00:54.257Z,45
2022-09-15T03:01:54.156Z,44
2022-09-15T03:03:54.164Z,45
2022-09-15T03:04:54.102Z,47
2022-09-15T03:05:54.110Z,44
2022-09-15T03:06:54.102Z,46
2022-09-15T03:07:54.107Z,43
2022-09-15T03:08:54.099Z,45
2022-09-15T03:09:54.121Z,41
2022-09-15T03:10:54.109Z,43
2022-09-15T03:11:54.136Z,41
2022-09-15T03:12:54.109Z,43
2022-09-15T03:13:54.118Z,40
2022-09-15T03:14:54.102Z,41
2022-09-15T03:15:54.132Z,42
2022-09-15T03:16:54.101Z,44
2022-09-15T03:17:54.106Z,21
2022-09-15T03:18:54.143Z,42
2022-09-15T03:19:54.109Z,45
2022-09-15T03:20:54.104Z,42
2022-09-15T03:21:54.110Z,43
2022-09-15T03:22:54.094Z,41
2022-09-15T03:23:54.098Z,41
2022-09-15T03:24:54.124Z,44
2022-09-15T03:25:54.110Z,40
2022-09-15T03:26:54.098Z,46
2022-09-15T03:27:54.100Z,44
2022-09-15T03:28:54.128Z,46
2022-09-15T03:29:54.102Z,43
2022-09-15T03:30:54.100Z,45
2022-09-15T03:31:54.147Z,49
2022-09-15T03:32:54.137Z,47
2022-09-15T03:33:54.107Z,46
2022-09-15T03:34:56.435Z,47
2022-09-15T03:35:54.103Z,47
2022-09-15T03:36:54.109Z,41
2022-09-15T03:37:54.107Z,44
2022-09-15T03:38:54.098Z,43
2022-09-15T03:39:54.200Z,43
2022-09-15T03:40:54.122Z,46
2022-09-15T03:41:54.093Z,44
2022-09-15T03:42:54.107Z,47
2022-09-15T03:43:54.112Z,43
2022-09-15T03:44:54.126Z,45
2022-09-15T03:45:54.148Z,46
2022-09-15T03:46:54.114Z,51
2022-09-15T03:47:54.110Z,49
2022-09-15T03:48:54.100Z,51
2022-09-15T03:49:54.108Z,49
2022-09-15T03:50:54.117Z,54
2022-09-15T03:51:54.112Z,47
2022-09-15T03:52:58.191Z,46
2022-09-15T03:53:54.113Z,44
2022-09-15T03:54:54.132Z,47
2022-09-15T03:55:54.112Z,44
2022-09-15T03:56:54.108Z,40
2022-09-15T03:57:54.118Z,41
2022-09-15T03:58:54.109Z,39
2022-09-15T03:59:54.129Z,40
2022-09-15T04:00:54.172Z,39
2022-09-15T04:01:54.174Z,38
2022-09-15T04:02:54.106Z,39
2022-09-15T04:03:54.101Z,38
2022-09-15T04:04:54.170Z,38
2022-09-15T04:05:54.116Z,42
2022-09-15T04:06:54.117Z,40
2022-09-15T04:07:54.101Z,39
2022-09-15T04:08:54.115Z,40
2022-09-15T04:09:54.135Z,37
2022-09-15T04:10:54.116Z,39
2022-09-15T04:11:54.103Z,38
2022-09-15T04:12:54.118Z,36
2022-09-15T04:13:54.116Z,38
2022-09-15T04:14:54.132Z,38
2022-09-15T04:15:54.155Z,36
2022-09-15T04:16:54.142Z,37
2022-09-15T04:17:54.104Z,35
2022-09-15T04:18:54.127Z,38
2022-09-15T04:19:54.118Z,39
2022-09-15T04:20:54.126Z,38
2022-09-15T04:21:54.196Z,34
2022-09-15T04:22:54.105Z,37
2022-09-15T04:23:54.130Z,39
2022-09-15T04:24:54.131Z,36
2022-09-15T04:25:54.126Z,42
2022-09-15T04:26:54.107Z,40
2022-09-15T04:27:54.114Z,37
2022-09-15T04:28:54.114Z,38
2022-09-15T04:29:54.125Z,40
2022-09-15T04:30:54.130Z,37
2022-09-15T04:31:54.234Z,38
2022-09-15T04:32:54.113Z,43
2022-09-15T04:33:54.212Z,40
2022-09-15T04:34:54.119Z,37
2022-09-15T04:35:54.123Z,44
2022-09-15T04:36:54.115Z,39
2022-09-15T04:37:54.107Z,40
2022-09-15T04:38:54.169Z,35
2022-09-15T04:39:54.207Z,42
2022-09-15T04:40:54.117Z,38
2022-09-15T04:41:54.117Z,36
2022-09-15T04:42:54.110Z,38
2022-09-15T04:43:54.203Z,40
2022-09-15T04:44:54.122Z,43
2022-09-15T04:45:54.119Z,41
2022-09-15T04:46:54.196Z,38
2022-09-15T04:47:54.115Z,39
2022-09-15T04:48:54.112Z,39
2022-09-15T04:49:54.117Z,39
2022-09-15T04:50:54.111Z,42
2022-09-15T04:51:54.124Z,40
2022-09-15T04:52:54.108Z,39
2022-09-15T04:53:54.170Z,42
2022-09-15T04:54:54.185Z,38
2022-09-15T04:55:54.178Z,41
2022-09-15T04:56:54.134Z,38
2022-09-15T04:57:54.131Z,40
2022-09-15T04:58:54.132Z,41
2022-09-15T04:59:54.169Z,39
2022-09-15T05:00:54.199Z,38
2022-09-15T05:01:54.217Z,40
2022-09-15T05:02:54.112Z,21
2022-09-15T05:03:54.122Z,37
2022-09-15T05:04:54.116Z,38
2022-09-15T05:05:54.112Z,38
2022-09-15T05:06:54.114Z,40
2022-09-15T05:07:54.124Z,37
2022-09-15T05:08:54.126Z,36
2022-09-15T05:09:54.156Z,38
2022-09-15T05:10:54.122Z,42
2022-09-15T05:11:54.122Z,39
2022-09-15T05:12:54.162Z,41
2022-09-15T05:13:54.173Z,40
2022-09-15T05:14:54.145Z,44
2022-09-15T05:15:54.167Z,41
2022-09-15T05:16:54.114Z,43
2022-09-15T05:17:54.132Z,43
2022-09-15T05:18:54.132Z,45
2022-09-15T05:19:54.130Z,44
2022-09-15T05:20:54.133Z,44
2022-09-15T05:21:54.119Z,43
2022-09-15T05:22:54.125Z,41
2022-09-15T05:23:54.115Z,40
2022-09-15T05:24:54.129Z,45
2022-09-15T05:25:54.117Z,44
2022-09-15T05:26:54.144Z,43
2022-09-15T05:27:54.198Z,45
2022-09-15T05:28:54.126Z,43
2022-09-15T05:30:09.780Z,45
2022-09-15T05:30:54.303Z,44
2022-09-15T05:31:54.263Z,43
2022-09-15T05:32:54.134Z,40
2022-09-15T05:33:54.150Z,42
2022-09-15T05:34:54.195Z,42
2022-09-15T05:35:54.122Z,41
2022-09-15T05:36:54.126Z,44
2022-09-15T05:37:54.131Z,45
2022-09-15T05:38:54.135Z,42
2022-09-15T05:39:54.195Z,43
2022-09-15T05:40:54.137Z,43
2022-09-15T05:41:54.123Z,43
2022-09-15T05:42:54.116Z,47
2022-09-15T05:43:54.130Z,46
2022-09-15T05:44:54.148Z,40
2022-09-15T05:45:54.115Z,43
2022-09-15T05:46:54.266Z,43
2022-09-15T05:47:54.131Z,40
2022-09-15T05:48:54.126Z,42
2022-09-15T05:49:54.135Z,42
2022-09-15T05:50:54.141Z,42
2022-09-15T05:51:54.132Z,41
2022-09-15T05:52:54.125Z,40
2022-09-15T05:53:54.127Z,42
2022-09-15T05:54:58.867Z,39
2022-09-15T05:55:54.131Z,47
2022-09-15T05:56:54.140Z,44
2022-09-15T05:57:54.197Z,42
2022-09-15T05:58:54.276Z,45
2022-09-15T05:59:54.251Z,43
2022-09-15T06:00:54.171Z,43
2022-09-15T06:01:54.229Z,40
2022-09-15T06:02:54.172Z,42
2022-09-15T06:03:54.180Z,44
2022-09-15T06:04:54.141Z,44
2022-09-15T06:05:54.129Z,42
2022-09-15T06:06:54.128Z,40
2022-09-15T06:07:54.123Z,44
2022-09-15T06:08:57.734Z,41
2022-09-15T06:09:54.143Z,42
2022-09-15T06:10:54.135Z,40
2022-09-15T06:11:54.130Z,39
2022-09-15T06:12:54.129Z,40
2022-09-15T06:13:54.140Z,39
2022-09-15T06:14:54.143Z,39
2022-09-15T06:15:54.182Z,37
2022-09-15T06:16:54.158Z,37
2022-09-15T06:17:54.128Z,40
2022-09-15T06:18:54.302Z,40
2022-09-15T06:19:54.145Z,37
2022-09-15T06:21:54.117Z,38
2022-09-15T06:22:54.130Z,36
2022-09-15T06:23:54.139Z,40
2022-09-15T06:24:54.133Z,36
2022-09-15T06:25:54.167Z,37
2022-09-15T06:26:54.129Z,34
2022-09-15T06:27:54.121Z,34
2022-09-15T06:28:54.130Z,37
2022-09-15T06:29:54.134Z,39
2022-09-15T06:30:54.131Z,37
2022-09-15T06:31:54.236Z,34
2022-09-15T06:32:54.132Z,36
2022-09-15T06:33:54.557Z,35
2022-09-15T06:34:54.161Z,35
2022-09-15T06:35:54.190Z,32
2022-09-15T06:36:54.151Z,32
2022-09-15T06:37:54.124Z,34
2022-09-15T06:38:54.134Z,36
2022-09-15T06:39:54.187Z,37
2022-09-15T06:40:54.167Z,38
2022-09-15T06:42:02.143Z,37
2022-09-15T06:42:54.130Z,33
2022-09-15T06:43:54.140Z,33
2022-09-15T06:44:54.126Z,35
2022-09-15T06:45:54.168Z,36
2022-09-15T06:46:54.139Z,34
2022-09-15T06:48:07.606Z,32
2022-09-15T06:48:54.178Z,34
2022-09-15T06:49:54.135Z,30
2022-09-15T06:50:54.127Z,34
2022-09-15T06:51:54.147Z,34
2022-09-15T06:52:54.137Z,32
2022-09-15T06:53:54.129Z,31
2022-09-15T06:54:54.138Z,30
2022-09-15T06:55:54.134Z,30
2022-09-15T06:56:54.146Z,30
2022-09-15T06:57:54.138Z,33
2022-09-15T06:58:54.295Z,32
2022-09-15T06:59:54.183Z,30
2022-09-15T07:00:54.135Z,31
2022-09-15T07:01:54.226Z,32
2022-09-15T07:02:54.257Z,32
2022-09-15T07:03:54.149Z,30
2022-09-15T07:04:54.201Z,31
2022-09-15T07:05:54.146Z,30
2022-09-15T07:06:54.135Z,31
2022-09-15T07:07:54.133Z,31
2022-09-15T07:08:54.129Z,31
2022-09-15T07:09:54.146Z,28
2022-09-15T07:10:54.167Z,29
2022-09-15T07:11:54.145Z,31
2022-09-15T07:12:54.132Z,33
2022-09-15T07:13:54.152Z,35
2022-09-15T07:14:54.160Z,28
2022-09-15T07:15:54.244Z,33
2022-09-15T07:16:54.192Z,29
2022-09-15T07:17:54.141Z,30
2022-09-15T07:18:54.151Z,31
2022-09-15T07:19:54.157Z,28
2022-09-15T07:20:54.146Z,32
2022-09-15T07:21:54.126Z,30
2022-09-15T07:22:54.133Z,28
2022-09-15T07:23:54.291Z,29
2022-09-15T07:24:54.158Z,32
2022-09-15T07:25:54.152Z,33
2022-09-15T07:26:54.133Z,35
2022-09-15T07:27:54.137Z,33
2022-09-15T07:28:54.138Z,30
2022-09-15T07:29:54.172Z,32
2022-09-15T07:30:54.143Z,32
2022-09-15T07:31:54.229Z,36
2022-09-15T07:32:54.130Z,36
2022-09-15T07:33:54.188Z,34
2022-09-15T07:34:58.131Z,35
2022-09-15T07:35:54.191Z,34
2022-09-15T07:36:54.166Z,37
2022-09-15T07:37:54.143Z,38
2022-09-15T07:38:54.196Z,34
2022-09-15T07:39:54.215Z,41
2022-09-15T07:40:54.152Z,37
2022-09-15T07:41:54.133Z,36
2022-09-15T07:42:54.138Z,41
2022-09-15T07:43:54.149Z,39
2022-09-15T07:44:54.161Z,37
2022-09-15T07:45:54.230Z,37
2022-09-15T07:46:54.138Z,38
2022-09-15T07:47:54.165Z,38
2022-09-15T07:48:54.187Z,37
2022-09-15T07:49:54.155Z,40
2022-09-15T07:50:54.142Z,44
2022-09-15T07:51:54.152Z,41
2022-09-15T07:52:54.130Z,40
2022-09-15T07:53:54.318Z,41
2022-09-15T07:54:54.158Z,46
2022-09-15T07:55:54.140Z,43
2022-09-15T07:56:54.134Z,44
2022-09-15T07:57:54.160Z,44
2022-09-15T07:58:54.143Z,40
2022-09-15T07:59:54.154Z,41
2022-09-15T08:00:54.205Z,44
2022-09-15T08:01:54.239Z,42
2022-09-15T08:02:54.138Z,45
2022-09-15T08:03:54.347Z,45
2022-09-15T08:04:54.169Z,46
2022-09-15T08:05:54.160Z,46
2022-09-15T08:06:54.148Z,47
2022-09-15T08:07:54.201Z,48
2022-09-15T08:09:00.017Z,44
2022-09-15T08:09:54.172Z,43
2022-09-15T08:10:54.172Z,43
2022-09-15T08:11:54.151Z,46
2022-09-15T08:12:54.208Z,46
2022-09-15T08:13:54.142Z,44
2022-09-15T08:15:54.213Z,43
2022-09-15T08:16:54.153Z,42
2022-09-15T08:17:54.145Z,45
2022-09-15T08:18:54.471Z,44
2022-09-15T08:19:54.188Z,47
2022-09-15T08:20:54.172Z,43
2022-09-15T08:21:54.155Z,46
2022-09-15T08:22:54.148Z,43
2022-09-15T08:23:54.225Z,41
2022-09-15T08:24:54.225Z,43
2022-09-15T08:25:54.190Z,44
2022-09-15T08:26:54.153Z,45
2022-09-15T08:27:54.144Z,40
2022-09-15T08:28:54.345Z,45
2022-09-15T08:29:54.169Z,43
2022-09-15T08:30:54.243Z,43
2022-09-15T08:31:54.154Z,41
2022-09-15T08:32:54.147Z,39
2022-09-15T08:33:54.153Z,37
2022-09-15T08:34:54.163Z,38
2022-09-15T08:35:54.144Z,37
2022-09-15T08:36:54.207Z,40
2022-09-15T08:37:54.149Z,41
2022-09-15T08:38:54.252Z,37
2022-09-15T08:39:54.205Z,40
2022-09-15T08:40:54.166Z,35
2022-09-15T08:41:54.149Z,35
2022-09-15T08:42:54.145Z,34
2022-09-15T08:43:54.162Z,36
2022-09-15T08:44:54.158Z,37
2022-09-15T08:45:54.147Z,39
2022-09-15T08:46:54.254Z,38
2022-09-15T08:47:54.160Z,40
2022-09-15T08:48:54.162Z,37
2022-09-15T08:49:54.146Z,39
2022-09-15T08:50:54.201Z,40
2022-09-15T08:51:54.166Z,37
2022-09-15T08:52:54.158Z,37
2022-09-15T08:53:54.232Z,34
2022-09-15T08:54:54.146Z,37
2022-09-15T08:55:54.164Z,35
2022-09-15T08:56:54.160Z,35
2022-09-15T08:57:54.173Z,37
2022-09-15T08:58:54.160Z,35
2022-09-15T08:59:54.153Z,35
2022-09-15T09:00:54.163Z,33
2022-09-15T09:01:54.250Z,35
2022-09-15T09:02:54.182Z,39
2022-09-15T09:03:54.160Z,34
2022-09-15T09:04:54.156Z,31
2022-09-15T09:05:54.149Z,29
2022-09-15T09:06:54.167Z,31
2022-09-15T09:07:54.173Z,31
2022-09-15T09:08:54.145Z,33
2022-09-15T09:09:54.176Z,35
2022-09-15T09:10:54.255Z,33
2022-09-15T09:11:54.150Z,33
2022-09-15T09:12:54.157Z,34
2022-09-15T09:13:54.306Z,34
2022-09-15T09:14:54.168Z,36
2022-09-15T09:15:54.227Z,32
2022-09-15T09:16:54.162Z,34
2022-09-15T09:17:54.209Z,31
2022-09-15T09:18:54.171Z,32
2022-09-15T09:19:54.163Z,33
2022-09-15T09:20:54.165Z,34
2022-09-15T09:21:54.150Z,33
2022-09-15T09:22:54.169Z,30
2022-09-15T09:23:54.191Z,32
2022-09-15T09:24:54.155Z,29
2022-09-15T09:25:54.164Z,29
2022-09-15T09:26:54.168Z,29
2022-09-15T09:27:54.156Z,29
2022-09-15T09:28:54.155Z,30
2022-09-15T09:29:54.162Z,27
2022-09-15T09:30:54.217Z,27
2022-09-15T09:31:54.165Z,26
2022-09-15T09:32:54.148Z,26
2022-09-15T09:33:54.271Z,23
2022-09-15T09:34:54.169Z,19
2022-09-15T09:35:54.174Z,23
2022-09-15T09:36:54.163Z,21
2022-09-15T09:37:54.161Z,24
2022-09-15T09:38:54.161Z,27
2022-09-15T09:39:54.217Z,24
2022-09-15T09:40:56.592Z,24
2022-09-15T09:41:54.174Z,27
2022-09-15T09:42:54.153Z,22
2022-09-15T09:43:54.166Z,23
2022-09-15T09:44:54.167Z,24
2022-09-15T09:45:54.238Z,25
2022-09-15T09:46:54.193Z,22
2022-09-15T09:47:57.241Z,24
2022-09-15T09:48:54.212Z,24
2022-09-15T09:49:54.153Z,27
2022-09-15T09:50:54.174Z,26
2022-09-15T09:51:54.226Z,25
2022-09-15T09:52:54.153Z,24
2022-09-15T09:53:54.168Z,22
2022-09-15T09:54:54.178Z,22
2022-09-15T09:55:54.174Z,22
2022-09-15T09:56:54.166Z,23
2022-09-15T09:57:54.191Z,21
2022-09-15T09:58:54.254Z,21
2022-09-15T09:59:54.162Z,22
2022-09-15T10:01:54.238Z,22
2022-09-15T10:02:54.163Z,21
2022-09-15T10:03:54.215Z,22
2022-09-15T10:04:54.274Z,19
2022-09-15T10:05:54.175Z,21
2022-09-15T10:06:54.153Z,20
2022-09-15T10:07:54.186Z,22
2022-09-15T10:08:54.229Z,22
2022-09-15T10:09:54.173Z,23
2022-09-15T10:10:54.203Z,23
2022-09-15T10:11:54.216Z,22
2022-09-15T10:12:54.169Z,22
2022-09-15T10:13:54.439Z,22
2022-09-15T10:14:54.163Z,22
2022-09-15T10:15:54.166Z,19
2022-09-15T10:16:54.267Z,23
2022-09-15T10:17:54.168Z,22
2022-09-15T10:18:54.692Z,22
2022-09-15T10:19:54.171Z,20
2022-09-15T10:20:54.217Z,22
2022-09-15T10:21:54.167Z,19
2022-09-15T10:22:54.159Z,19
2022-09-15T10:23:54.330Z,20
2022-09-15T10:24:54.168Z,19
2022-09-15T10:26:01.580Z,19
2022-09-15T10:26:54.185Z,17
2022-09-15T10:27:54.194Z,20
2022-09-15T10:28:54.237Z,17
2022-09-15T10:29:54.171Z,18
2022-09-15T10:30:54.175Z,17
2022-09-15T10:31:54.291Z,18
2022-09-15T10:32:54.164Z,19
2022-09-15T10:33:54.168Z,17
2022-09-15T10:34:54.180Z,13
2022-09-15T10:35:54.185Z,18
2022-09-15T10:36:54.168Z,13
2022-09-15T10:37:54.218Z,12
2022-09-15T10:38:54.173Z,11
2022-09-15T10:39:54.273Z,11
2022-09-15T10:40:54.183Z,14
2022-09-15T10:41:54.183Z,13
2022-09-15T10:42:54.236Z,13
2022-09-15T10:43:54.183Z,13
2022-09-15T10:44:54.176Z,14
2022-09-15T10:45:54.243Z,13
2022-09-15T10:46:54.173Z,13
2022-09-15T10:47:54.190Z,15
2022-09-15T10:48:54.179Z,15
2022-09-15T10:49:54.191Z,14
2022-09-15T10:50:54.190Z,12
2022-09-15T10:51:54.168Z,14
2022-09-15T10:52:54.189Z,14
2022-09-15T10:53:57.340Z,12
2022-09-15T10:54:54.362Z,13
2022-09-15T10:55:54.193Z,13
2022-09-15T10:56:54.188Z,12
2022-09-15T10:57:54.186Z,12
2022-09-15T10:58:54.211Z,12
2022-09-15T10:59:54.206Z,11
2022-09-15T11:00:54.211Z,10
2022-09-15T11:01:54.271Z,14
2022-09-15T11:02:54.190Z,12
2022-09-15T11:03:54.179Z,12
2022-09-15T11:04:54.173Z,13
2022-09-15T11:05:54.178Z,11
2022-09-15T11:06:54.184Z,12
2022-09-15T11:07:54.197Z,11
2022-09-15T11:08:54.181Z,11
2022-09-15T11:09:54.184Z,11
2022-09-15T11:10:54.464Z,10
2022-09-15T11:11:54.256Z,12
2022-09-15T11:12:54.192Z,10
2022-09-15T11:13:54.302Z,10
2022-09-15T11:14:54.204Z,13
2022-09-15T11:15:54.219Z,10
2022-09-15T11:16:54.178Z,11
2022-09-15T11:17:54.203Z,10
2022-09-15T11:18:54.205Z,8
2022-09-15T11:19:54.183Z,10
2022-09-15T11:20:54.216Z,11
2022-09-15T11:21:54.357Z,12
2022-09-15T11:22:54.183Z,9
2022-09-15T11:23:54.180Z,9
2022-09-15T11:24:54.186Z,9
2022-09-15T11:25:54.206Z,12
2022-09-15T11:26:54.171Z,12
2022-09-15T11:27:54.180Z,9
2022-09-15T11:28:54.258Z,10
2022-09-15T11:29:54.177Z,10
2022-09-15T11:30:54.192Z,8
2022-09-15T11:31:54.345Z,8
2022-09-15T11:32:57.242Z,9
2022-09-15T11:33:54.217Z,7
2022-09-15T11:34:54.191Z,7
2022-09-15T11:35:54.188Z,8
2022-09-15T11:36:54.191Z,7
2022-09-15T11:37:54.187Z,8
2022-09-15T11:38:54.238Z,7
2022-09-15T11:39:54.246Z,9
2022-09-15T11:40:54.194Z,9
2022-09-15T11:41:54.195Z,9
2022-09-15T11:42:54.199Z,7
2022-09-15T11:43:54.256Z,8
2022-09-15T11:44:54.211Z,8
2022-09-15T11:45:54.195Z,9
2022-09-15T11:46:54.261Z,10
2022-09-15T11:47:54.208Z,6
2022-09-15T11:48:54.184Z,7
2022-09-15T11:49:54.206Z,8
2022-09-15T11:50:54.183Z,7
2022-09-15T11:51:54.187Z,7
2022-09-15T11:52:54.200Z,10
2022-09-15T11:53:54.279Z,8
2022-09-15T11:54:54.197Z,6
2022-09-15T11:55:54.208Z,10
2022-09-15T11:56:54.197Z,8
2022-09-15T11:57:54.175Z,7
2022-09-15T11:58:54.205Z,5
2022-09-15T11:59:54.186Z,5
2022-09-15T12:00:54.255Z,4
2022-09-15T12:01:54.225Z,4
2022-09-15T12:02:54.280Z,3
2022-09-15T12:03:54.182Z,5
2022-09-15T12:04:54.184Z,4
2022-09-15T12:05:54.208Z,3
2022-09-15T12:06:54.291Z,3
2022-09-15T12:07:54.195Z,3
2022-09-15T12:08:54.197Z,3
2022-09-15T12:09:54.188Z,4
2022-09-15T12:10:54.195Z,4
2022-09-15T12:11:54.200Z,4
2022-09-15T12:12:54.195Z,4
2022-09-15T12:13:54.246Z,3
2022-09-15T12:14:54.198Z,3
2022-09-15T12:15:54.287Z,4
2022-09-15T12:16:54.190Z,5
2022-09-15T12:17:54.191Z,4
2022-09-15T12:18:54.196Z,5
2022-09-15T12:19:54.198Z,3
2022-09-15T12:20:54.208Z,4
2022-09-15T12:21:54.202Z,4
2022-09-15T12:22:54.181Z,3
2022-09-15T12:23:54.194Z,4
2022-09-15T12:24:56.109Z,4
2022-09-15T12:25:54.202Z,7
2022-09-15T12:26:54.201Z,5
2022-09-15T12:27:54.204Z,5
2022-09-15T12:28:54.234Z,4
2022-09-15T12:29:54.201Z,4
2022-09-15T12:30:54.232Z,3
2022-09-15T12:31:54.204Z,3
2022-09-15T12:32:54.197Z,3
2022-09-15T12:33:54.217Z,4
2022-09-15T12:34:54.262Z,4
2022-09-15T12:35:54.190Z,3
2022-09-15T12:36:54.246Z,4
2022-09-15T12:37:54.221Z,4
2022-09-15T12:38:54.196Z,3
2022-09-15T12:39:54.288Z,5
2022-09-15T12:40:54.200Z,4
2022-09-15T12:41:54.217Z,3
2022-09-15T12:42:54.202Z,3
2022-09-15T12:43:54.210Z,5
2022-09-15T12:44:54.198Z,4
2022-09-15T12:45:54.203Z,3
2022-09-15T12:46:54.344Z,6
2022-09-15T12:47:54.198Z,3
2022-09-15T12:48:54.198Z,3
2022-09-15T12:49:54.198Z,5
2022-09-15T12:50:54.210Z,4
2022-09-15T12:51:54.292Z,5
2022-09-15T12:52:54.197Z,4
2022-09-15T12:53:54.455Z,3
2022-09-15T12:54:54.204Z,5
2022-09-15T12:55:54.232Z,4
2022-09-15T12:56:54.211Z,5
2022-09-15T12:57:54.203Z,4
2022-09-15T12:58:54.212Z,4
2022-09-15T12:59:54.195Z,5
2022-09-15T13:01:16.912Z,4
2022-09-15T13:01:54.303Z,4
2022-09-15T13:02:54.256Z,3
2022-09-15T13:03:54.386Z,5
2022-09-15T13:04:54.207Z,4
2022-09-15T13:05:54.199Z,5
2022-09-15T13:06:54.206Z,4
2022-09-15T13:07:54.220Z,4
2022-09-15T13:08:54.201Z,4
2022-09-15T13:09:54.217Z,6
2022-09-15T13:10:54.214Z,3
2022-09-15T13:11:54.211Z,3
2022-09-15T13:12:54.201Z,3
2022-09-15T13:13:54.255Z,4
2022-09-15T13:14:54.210Z,4
2022-09-15T13:15:54.306Z,5
2022-09-15T13:16:54.200Z,4
2022-09-15T13:17:54.246Z,4
2022-09-15T13:18:54.225Z,3
2022-09-15T13:19:54.211Z,4
2022-09-15T13:20:54.216Z,5
2022-09-15T13:21:54.216Z,4
2022-09-15T13:22:54.202Z,5
2022-09-15T13:23:54.206Z,3
2022-09-15T13:24:59.046Z,6
2022-09-15T13:25:54.219Z,3
2022-09-15T13:26:54.210Z,3
2022-09-15T13:27:54.220Z,4
2022-09-15T13:28:56.319Z,2
2022-09-15T13:29:54.213Z,4
2022-09-15T13:30:54.304Z,4
2022-09-15T13:31:54.222Z,6
2022-09-15T13:32:54.227Z,4
2022-09-15T13:35:07.839Z,3
2022-09-15T13:35:54.254Z,4
2022-09-15T13:38:16.862Z,4
2022-09-15T13:38:54.219Z,4
2022-09-15T13:39:54.261Z,4
2022-09-15T13:40:54.281Z,5
2022-09-15T13:41:54.214Z,4
2022-09-15T13:42:54.205Z,5
2022-09-15T13:43:54.266Z,5
2022-09-15T13:44:54.211Z,4
2022-09-15T13:45:54.358Z,4
2022-09-15T13:46:54.209Z,4
2022-09-15T13:47:54.227Z,3
2022-09-15T13:48:54.253Z,5
2022-09-15T13:49:54.229Z,5
2022-09-15T13:50:54.235Z,4
2022-09-15T13:51:54.216Z,4
2022-09-15T13:52:54.215Z,4
2022-09-15T13:53:54.216Z,6
2022-09-15T13:54:54.214Z,3
2022-09-15T13:55:54.210Z,4
2022-09-15T13:56:54.235Z,3
2022-09-15T13:58:58.899Z,3
2022-09-15T13:59:54.216Z,5
2022-09-15T14:00:54.227Z,4
2022-09-15T14:01:54.265Z,3
2022-09-15T14:02:54.267Z,3
2022-09-15T14:03:54.221Z,4
2022-09-15T14:04:54.219Z,6
2022-09-15T14:05:54.228Z,4
2022-09-15T14:06:57.128Z,3
2022-09-15T14:07:55.778Z,4
2022-09-15T14:08:54.215Z,4
2022-09-15T14:09:54.228Z,4
2022-09-15T14:10:54.226Z,3
2022-09-15T14:11:54.220Z,3
2022-09-15T14:12:54.228Z,3
2022-09-15T14:13:54.259Z,4
2022-09-15T14:14:54.226Z,4
2022-09-15T14:15:54.230Z,4
2022-09-15T14:16:54.369Z,3
2022-09-15T14:17:54.219Z,3
2022-09-15T14:18:54.240Z,5
2022-09-15T14:19:54.294Z,3
2022-09-15T14:20:54.222Z,2
2022-09-15T14:21:58.349Z,7
2022-09-15T14:22:54.233Z,4
2022-09-15T14:23:54.229Z,5
2022-09-15T14:24:54.276Z,3
2022-09-15T14:25:54.224Z,5
2022-09-15T14:26:54.237Z,5
2022-09-15T14:27:54.229Z,3
2022-09-15T14:28:54.288Z,4